createdAt,value
2022-10-14T00:02:09.133Z,7.28
2022-10-14T00:04:39.261Z,7.30
2022-10-14T00:07:09.067Z,7.32
2022-10-14T00:09:41.389Z,7.31
2022-10-14T00:12:12.167Z,7.23
2022-10-14T00:14:42.447Z,7.26
2022-10-14T00:17:12.244Z,7.33
2022-10-14T00:19:42.349Z,7.33
2022-10-14T00:22:12.150Z,7.32
2022-10-14T00:24:41.980Z,7.29
2022-10-14T00:27:11.715Z,7.31
2022-10-14T00:29:41.529Z,7.31
2022-10-14T00:32:11.313Z,7.32
2022-10-14T00:34:41.119Z,7.23
2022-10-14T00:37:10.899Z,7.25
2022-10-14T00:39:40.770Z,7.29
2022-10-14T00:42:16.126Z,7.11
2022-10-14T00:44:49.278Z,7.17
2022-10-14T00:47:19.856Z,7.22
2022-10-14T00:49:50.153Z,7.25
2022-10-14T00:52:22.564Z,7.24
2022-10-14T00:54:57.107Z,7.19
2022-10-14T00:57:27.916Z,7.15
2022-10-14T01:00:01.786Z,7.11
2022-10-14T01:02:32.160Z,7.08
2022-10-14T01:05:03.842Z,7.02
2022-10-14T01:07:48.682Z,7.00
2022-10-14T01:10:27.289Z,6.99
2022-10-14T01:13:18.110Z,6.95
2022-10-14T01:16:11.864Z,6.92
2022-10-14T01:18:51.874Z,6.79
2022-10-14T01:21:39.458Z,6.84
2022-10-14T01:24:21.214Z,6.84
2022-10-14T01:27:08.759Z,6.80
2022-10-14T01:30:00.270Z,6.80
2022-10-14T01:32:36.022Z,6.83
2022-10-14T01:35:27.141Z,6.94
2022-10-14T01:37:59.845Z,7.00
2022-10-14T01:40:42.452Z,7.00
2022-10-14T01:43:15.110Z,7.03
2022-10-14T01:45:47.282Z,7.09
2022-10-14T01:48:19.814Z,7.12
2022-10-14T01:50:52.799Z,7.07
2022-10-14T01:53:28.644Z,7.18
2022-10-14T01:55:59.695Z,7.18
2022-10-14T01:58:32.586Z,7.20
2022-10-14T02:01:09.335Z,7.27
2022-10-14T02:03:44.630Z,7.24
2022-10-14T02:06:17.455Z,7.37
2022-10-14T02:08:50.308Z,7.37
2022-10-14T02:11:21.656Z,7.39
2022-10-14T02:13:54.767Z,7.40
2022-10-14T02:16:27.394Z,7.47
2022-10-14T02:19:03.386Z,7.51
2022-10-14T02:21:36.531Z,7.59
2022-10-14T02:24:12.483Z,7.62
2022-10-14T02:26:44.995Z,7.69
2022-10-14T02:29:15.395Z,7.70
2022-10-14T02:31:46.607Z,7.71
2022-10-14T02:34:19.430Z,7.70
2022-10-14T02:36:50.500Z,7.63
2022-10-14T02:39:20.765Z,7.63
2022-10-14T02:41:50.694Z,7.58
2022-10-14T02:44:20.496Z,7.58
2022-10-14T02:46:51.076Z,7.55
2022-10-14T02:49:20.800Z,7.42
2022-10-14T02:51:50.617Z,7.46
2022-10-14T02:54:20.433Z,7.40
2022-10-14T02:56:50.252Z,7.28
2022-10-14T02:59:19.846Z,7.28
2022-10-14T03:01:50.705Z,7.30
2022-10-14T03:04:22.307Z,7.27
2022-10-14T03:06:53.915Z,7.08
2022-10-14T03:09:24.377Z,7.05
2022-10-14T03:11:54.566Z,7.03
2022-10-14T03:14:24.552Z,7.05
2022-10-14T03:16:54.608Z,7.09
2022-10-14T03:19:25.646Z,7.09
2022-10-14T03:21:57.240Z,7.08
2022-10-14T03:24:27.887Z,7.02
2022-10-14T03:27:06.215Z,7.08
2022-10-14T03:29:36.842Z,7.11
2022-10-14T03:32:08.494Z,7.06
2022-10-14T03:34:52.197Z,6.99
2022-10-14T03:37:23.709Z,7.03
2022-10-14T03:39:55.273Z,7.05
2022-10-14T03:42:26.660Z,6.96
2022-10-14T03:44:57.073Z,7.01
2022-10-14T03:47:28.585Z,6.96
2022-10-14T03:49:58.603Z,6.97
2022-10-14T03:52:33.637Z,6.99
2022-10-14T03:55:06.970Z,6.96
2022-10-14T03:57:36.746Z,6.93
2022-10-14T04:00:09.165Z,6.97
2022-10-14T04:02:44.529Z,6.97
2022-10-14T04:05:24.985Z,7.02
2022-10-14T04:07:54.818Z,7.00
2022-10-14T04:10:24.496Z,7.03
2022-10-14T04:12:56.996Z,7.05
2022-10-14T04:15:28.416Z,7.11
2022-10-14T04:17:59.948Z,7.15
2022-10-14T04:20:30.975Z,7.16
2022-10-14T04:23:01.706Z,7.21
2022-10-14T04:25:31.355Z,7.25
2022-10-14T04:28:02.882Z,7.16
2022-10-14T04:30:34.381Z,7.22
2022-10-14T04:33:04.491Z,7.23
2022-10-14T04:35:34.396Z,7.19
2022-10-14T04:38:04.367Z,7.28
2022-10-14T04:40:34.170Z,7.31
2022-10-14T04:43:04.362Z,7.30
2022-10-14T04:45:35.884Z,7.23
2022-10-14T04:48:06.732Z,7.36
2022-10-14T04:50:38.639Z,7.36
2022-10-14T04:53:26.203Z,7.38
2022-10-14T04:56:00.163Z,7.37
2022-10-14T04:58:30.602Z,7.33
2022-10-14T05:01:01.009Z,7.37
2022-10-14T05:03:38.307Z,7.40
2022-10-14T05:06:08.388Z,7.42
2022-10-14T05:08:40.251Z,7.36
2022-10-14T05:11:11.908Z,7.40
2022-10-14T05:13:42.676Z,7.40
2022-10-14T05:16:12.240Z,7.44
2022-10-14T05:18:42.497Z,7.45
2022-10-14T05:21:14.078Z,7.47
2022-10-14T05:24:02.371Z,7.48
2022-10-14T05:26:33.954Z,7.42
2022-10-14T05:29:07.123Z,7.39
2022-10-14T05:31:37.331Z,7.36
2022-10-14T05:34:08.834Z,7.39
2022-10-14T05:36:38.978Z,7.47
2022-10-14T05:39:11.574Z,7.46
2022-10-14T05:41:41.797Z,7.54
2022-10-14T05:44:12.995Z,7.61
2022-10-14T05:46:41.818Z,7.66
2022-10-14T05:49:12.842Z,7.72
2022-10-14T05:51:43.824Z,7.72
2022-10-14T05:54:15.514Z,7.80
2022-10-14T05:56:46.108Z,7.87
2022-10-14T05:59:16.855Z,7.91
2022-10-14T06:01:46.995Z,7.98
2022-10-14T06:04:21.813Z,8.10
2022-10-14T06:06:51.642Z,8.10
2022-10-14T06:09:21.498Z,8.15
2022-10-14T06:11:51.577Z,8.19
2022-10-14T06:14:22.203Z,8.22
2022-10-14T06:16:53.717Z,8.27
2022-10-14T06:19:23.566Z,8.26
2022-10-14T06:21:53.370Z,8.29
2022-10-14T06:24:23.169Z,8.33
2022-10-14T06:26:52.970Z,8.38
2022-10-14T06:29:24.195Z,8.42
2022-10-14T06:31:54.073Z,8.39
2022-10-14T06:34:24.765Z,8.51
2022-10-14T06:36:59.869Z,8.52
2022-10-14T06:39:26.155Z,8.55
2022-10-14T06:41:56.276Z,8.58
2022-10-14T06:44:25.951Z,8.68
2022-10-14T06:46:55.752Z,8.68
2022-10-14T06:49:25.625Z,8.68
2022-10-14T06:51:55.494Z,8.73
2022-10-14T06:54:25.558Z,8.73
2022-10-14T06:56:55.349Z,8.82
2022-10-14T06:59:25.867Z,8.96
2022-10-14T07:01:55.622Z,9.06
2022-10-14T07:04:25.568Z,9.16
2022-10-14T07:06:56.980Z,9.25
2022-10-14T07:09:26.778Z,9.32
2022-10-14T07:11:57.028Z,9.31
2022-10-14T07:14:26.824Z,9.54
2022-10-14T07:16:56.950Z,10.04
2022-10-14T07:19:27.026Z,10.61
2022-10-14T07:21:57.149Z,11.06
2022-10-14T07:24:27.012Z,11.49
2022-10-14T07:26:56.877Z,11.88
2022-10-14T07:29:26.721Z,12.15
2022-10-14T07:31:57.080Z,12.41
2022-10-14T07:34:27.394Z,12.74
2022-10-14T07:36:56.880Z,12.79
2022-10-14T07:39:27.576Z,13.05
2022-10-14T07:41:57.326Z,13.00
2022-10-14T07:44:27.538Z,12.90
2022-10-14T07:46:58.833Z,12.90
2022-10-14T07:49:27.591Z,12.73
2022-10-14T07:51:57.091Z,12.49
2022-10-14T07:54:29.981Z,12.61
2022-10-14T07:57:00.319Z,12.73
2022-10-14T07:59:30.506Z,12.88
2022-10-14T08:02:00.574Z,13.20
2022-10-14T08:04:30.339Z,13.17
2022-10-14T08:07:01.218Z,13.40
2022-10-14T08:09:31.576Z,13.48
2022-10-14T08:12:01.061Z,13.40
2022-10-14T08:14:31.189Z,13.48
2022-10-14T08:17:01.020Z,13.56
2022-10-14T08:19:31.273Z,13.24
2022-10-14T08:22:01.089Z,13.14
2022-10-14T08:24:30.989Z,13.26
2022-10-14T08:27:01.190Z,13.42
2022-10-14T08:29:31.012Z,13.70
2022-10-14T08:32:01.160Z,13.73
2022-10-14T08:34:31.447Z,13.83
2022-10-14T08:37:02.889Z,14.04
2022-10-14T08:39:32.718Z,14.19
2022-10-14T08:42:26.909Z,14.27
2022-10-14T08:45:00.012Z,14.17
2022-10-14T08:47:39.011Z,14.30
2022-10-14T08:50:30.050Z,14.48
2022-10-14T08:53:17.567Z,14.77
2022-10-14T08:55:53.028Z,14.77
2022-10-14T09:00:56.875Z,14.87
2022-10-14T09:03:31.260Z,14.68
2022-10-14T09:06:06.964Z,14.72
2022-10-14T09:08:41.478Z,14.95
2022-10-14T09:11:16.889Z,14.87
2022-10-14T09:13:49.954Z,14.95
2022-10-14T09:16:25.113Z,15.63
2022-10-14T09:19:00.493Z,16.03
2022-10-14T09:21:54.502Z,16.53
2022-10-14T09:24:32.409Z,16.57
2022-10-14T09:27:07.889Z,16.98
2022-10-14T09:29:58.365Z,17.30
2022-10-14T09:32:36.914Z,17.76
2022-10-14T09:35:15.766Z,16.71
2022-10-14T09:37:45.546Z,17.69
2022-10-14T09:40:18.102Z,17.42
2022-10-14T09:42:53.885Z,18.32
2022-10-14T09:45:26.135Z,17.77
2022-10-14T09:47:58.984Z,17.93
2022-10-14T09:50:37.857Z,17.62
2022-10-14T09:53:12.962Z,17.45
2022-10-14T09:55:51.630Z,17.75
2022-10-14T09:58:24.371Z,16.92
2022-10-14T10:00:58.979Z,17.77
2022-10-14T10:03:35.432Z,17.31
2022-10-14T10:06:09.145Z,17.59
2022-10-14T10:08:42.241Z,17.80
2022-10-14T10:11:13.966Z,18.22
2022-10-14T10:13:46.332Z,18.25
2022-10-14T10:16:34.343Z,17.71
2022-10-14T10:19:21.980Z,18.27
2022-10-14T10:21:52.317Z,18.52
2022-10-14T10:24:27.309Z,19.10
2022-10-14T10:26:55.746Z,18.69
2022-10-14T10:29:32.909Z,17.49
2022-10-14T10:32:08.419Z,18.19
2022-10-14T10:34:53.328Z,17.87
2022-10-14T10:37:29.188Z,17.80
2022-10-14T10:40:20.225Z,17.92
2022-10-14T10:43:09.278Z,18.35
2022-10-14T10:46:03.634Z,18.64
2022-10-14T10:48:50.106Z,18.27
2022-10-14T10:51:34.706Z,18.58
2022-10-14T10:54:10.558Z,18.59
2022-10-14T10:56:46.370Z,18.59
2022-10-14T10:59:43.261Z,19.06
2022-10-14T11:02:33.419Z,18.98
2022-10-14T11:05:12.175Z,19.33
2022-10-14T11:08:18.812Z,19.38
2022-10-14T11:11:36.669Z,18.95
2022-10-14T11:14:12.696Z,19.24
2022-10-14T11:16:51.164Z,19.20
2022-10-14T11:19:33.367Z,19.27
2022-10-14T11:22:06.247Z,19.36
2022-10-14T11:24:58.935Z,19.70
2022-10-14T11:27:44.469Z,19.15
2022-10-14T11:30:20.134Z,18.81
2022-10-14T11:33:06.475Z,19.20
2022-10-14T11:36:00.848Z,18.85
2022-10-14T11:38:46.658Z,18.27
2022-10-14T11:41:38.683Z,18.72
2022-10-14T11:44:11.219Z,18.00
2022-10-14T11:46:44.228Z,18.40
2022-10-14T11:49:29.040Z,18.44
2022-10-14T11:52:04.758Z,18.45
2022-10-14T11:54:40.712Z,18.18
2022-10-14T11:57:33.409Z,18.02
2022-10-14T12:00:22.913Z,17.94
2022-10-14T12:03:28.777Z,18.10
2022-10-14T12:06:07.390Z,18.10
2022-10-14T12:08:58.506Z,18.19
2022-10-14T12:11:40.346Z,18.40
2022-10-14T12:14:23.338Z,18.52
2022-10-14T12:16:56.732Z,18.43
2022-10-14T12:19:29.529Z,18.31
2022-10-14T12:22:29.690Z,18.48
2022-10-14T12:25:02.812Z,18.19
2022-10-14T12:27:33.355Z,18.39
2022-10-14T12:30:03.827Z,18.20
2022-10-14T12:32:35.190Z,18.18
2022-10-14T12:35:10.258Z,18.09
2022-10-14T12:37:46.496Z,18.29
2022-10-14T12:40:19.490Z,18.39
2022-10-14T12:42:56.830Z,18.67
2022-10-14T12:45:29.785Z,18.19
2022-10-14T12:48:24.629Z,18.19
2022-10-14T12:51:00.307Z,18.25
2022-10-14T12:53:34.352Z,18.28
2022-10-14T12:56:05.963Z,19.15
2022-10-14T12:58:41.517Z,19.15
2022-10-14T13:01:20.064Z,19.21
2022-10-14T13:04:00.170Z,19.65
2022-10-14T13:06:39.505Z,19.62
2022-10-14T13:09:18.151Z,19.30
2022-10-14T13:11:53.784Z,19.40
2022-10-14T13:14:32.120Z,18.89
2022-10-14T13:17:08.325Z,18.40
2022-10-14T13:19:42.838Z,18.25
2022-10-14T13:22:34.455Z,18.48
2022-10-14T13:25:15.261Z,18.44
2022-10-14T13:27:48.110Z,18.31
2022-10-14T13:30:23.582Z,18.30
2022-10-14T13:33:02.193Z,18.18
2022-10-14T13:35:35.097Z,18.30
2022-10-14T13:38:08.007Z,18.24
2022-10-14T13:40:53.364Z,18.24
2022-10-14T13:43:42.301Z,17.97
2022-10-14T13:46:20.260Z,17.60
2022-10-14T13:48:55.716Z,17.69
2022-10-14T13:51:36.461Z,17.12
2022-10-14T13:54:26.707Z,17.12
2022-10-14T13:57:38.148Z,17.20
2022-10-14T14:00:19.519Z,17.20
2022-10-14T14:02:26.362Z,17.37
2022-10-14T14:04:59.254Z,17.25
2022-10-14T14:08:08.001Z,17.51
2022-10-14T14:10:09.761Z,17.51
2022-10-14T14:12:42.609Z,17.38
2022-10-14T14:15:25.597Z,17.56
2022-10-14T14:17:55.665Z,17.24
2022-10-14T14:20:29.278Z,17.36
2022-10-14T14:23:00.302Z,17.22
2022-10-14T14:25:36.697Z,17.19
2022-10-14T14:28:06.868Z,17.18
2022-10-14T14:30:39.770Z,17.07
2022-10-14T14:33:12.689Z,16.74
2022-10-14T14:35:57.744Z,16.53
2022-10-14T14:38:32.211Z,16.56
2022-10-14T14:41:20.032Z,16.30
2022-10-14T14:44:13.645Z,16.31
2022-10-14T14:46:36.732Z,16.39
2022-10-14T14:49:08.670Z,16.06
2022-10-14T14:51:40.802Z,16.12
2022-10-14T14:54:19.192Z,16.02
2022-10-14T14:56:52.028Z,15.85
2022-10-14T14:59:27.079Z,15.69
2022-10-14T15:04:33.502Z,15.46
2022-10-14T15:07:21.101Z,15.37
2022-10-14T15:09:52.004Z,15.29
2022-10-14T15:12:28.340Z,15.12
2022-10-14T15:15:06.347Z,15.12
2022-10-14T15:17:42.044Z,15.01
2022-10-14T15:20:17.469Z,14.95
2022-10-14T15:22:51.970Z,14.85
2022-10-14T15:25:25.791Z,14.85
2022-10-14T15:27:57.327Z,14.79
2022-10-14T15:30:45.308Z,14.72
2022-10-14T15:33:23.072Z,14.77
2022-10-14T15:36:01.888Z,14.48
2022-10-14T15:41:05.394Z,14.28
2022-10-14T15:43:36.837Z,14.27
2022-10-14T15:46:23.945Z,14.05
2022-10-14T15:48:55.740Z,13.66
2022-10-14T15:51:27.468Z,13.66
2022-10-14T15:53:58.285Z,13.50
2022-10-14T15:56:30.117Z,13.50
2022-10-14T15:59:00.036Z,13.35
2022-10-14T16:01:29.911Z,13.30
2022-10-14T16:04:00.889Z,13.12
2022-10-14T16:06:32.509Z,12.91
2022-10-14T16:09:02.014Z,12.85
2022-10-14T16:11:32.576Z,12.54
2022-10-14T16:14:02.186Z,12.48
2022-10-14T16:16:38.182Z,12.45
2022-10-14T16:19:08.054Z,12.33
2022-10-14T16:21:40.028Z,12.25
2022-10-14T16:24:12.752Z,12.20
2022-10-14T16:26:42.524Z,12.09
2022-10-14T16:29:13.365Z,12.18
2022-10-14T16:31:43.225Z,12.02
2022-10-14T16:34:13.733Z,11.89
2022-10-14T16:36:43.811Z,11.87
2022-10-14T16:39:14.321Z,11.94
2022-10-14T16:41:44.268Z,11.54
2022-10-14T16:44:16.363Z,11.50
2022-10-14T16:47:02.701Z,11.39
2022-10-14T16:49:32.476Z,11.35
2022-10-14T16:52:02.276Z,11.23
2022-10-14T16:54:32.200Z,11.16
2022-10-14T16:57:02.970Z,11.07
2022-10-14T16:59:33.441Z,11.12
2022-10-14T17:02:04.494Z,10.92
2022-10-14T17:04:33.533Z,10.92
2022-10-14T17:07:04.913Z,10.79
2022-10-14T17:09:39.347Z,10.76
2022-10-14T17:12:13.763Z,10.70
2022-10-14T17:14:42.916Z,10.69
2022-10-14T17:17:13.203Z,10.60
2022-10-14T17:19:43.026Z,10.54
2022-10-14T17:22:13.513Z,10.49
2022-10-14T17:24:43.320Z,10.55
2022-10-14T17:27:12.914Z,10.42
2022-10-14T17:29:42.864Z,10.37
2022-10-14T17:32:12.587Z,10.30
2022-10-14T17:34:42.370Z,10.28
2022-10-14T17:37:12.197Z,10.25
2022-10-14T17:39:41.996Z,10.19
2022-10-14T17:42:11.491Z,10.15
2022-10-14T17:44:43.785Z,10.18
2022-10-14T17:47:13.170Z,10.18
2022-10-14T17:49:43.234Z,10.12
2022-10-14T17:52:13.032Z,10.15
2022-10-14T17:54:42.820Z,10.04
2022-10-14T17:57:12.338Z,10.00
2022-10-14T17:59:42.114Z,9.93
2022-10-14T18:02:14.894Z,9.89
2022-10-14T18:04:44.700Z,9.75
2022-10-14T18:07:15.258Z,9.75
2022-10-14T18:09:44.757Z,9.72
2022-10-14T18:12:14.291Z,9.72
2022-10-14T18:14:44.210Z,9.69
2022-10-14T18:17:14.136Z,9.69
2022-10-14T18:19:47.198Z,9.58
2022-10-14T18:22:16.143Z,9.52
2022-10-14T18:24:45.781Z,9.41
2022-10-14T18:27:15.317Z,9.36
2022-10-14T18:29:45.122Z,9.32
2022-10-14T18:32:14.635Z,9.30
2022-10-14T18:34:44.795Z,9.59
2022-10-14T18:37:14.710Z,9.38
2022-10-14T18:42:28.230Z,9.38
2022-10-14T18:44:59.141Z,9.24
2022-10-14T18:47:29.195Z,9.22
2022-10-14T18:49:59.680Z,9.15
2022-10-14T18:52:29.516Z,9.10
2022-10-14T18:54:59.496Z,8.97
2022-10-14T18:57:29.826Z,8.96
2022-10-14T18:59:59.486Z,8.95
2022-10-14T19:02:29.408Z,8.86
2022-10-14T19:04:59.501Z,8.83
2022-10-14T19:07:29.274Z,8.90
2022-10-14T19:09:59.082Z,8.88
2022-10-14T19:12:44.402Z,8.88
2022-10-14T19:15:14.340Z,8.83
2022-10-14T19:17:45.966Z,8.80
2022-10-14T19:20:16.804Z,8.69
2022-10-14T19:22:46.669Z,8.66
2022-10-14T19:25:20.489Z,8.75
2022-10-14T19:27:51.804Z,8.63
2022-10-14T19:30:21.549Z,8.56
2022-10-14T19:32:52.284Z,8.43
2022-10-14T19:35:22.275Z,8.30
2022-10-14T19:37:52.117Z,8.30
2022-10-14T19:40:23.699Z,8.31
2022-10-14T19:42:53.197Z,8.21
2022-10-14T19:45:23.518Z,8.20
2022-10-14T19:47:53.755Z,8.12
2022-10-14T19:50:23.258Z,8.12
2022-10-14T19:52:53.034Z,8.11
2022-10-14T19:55:22.700Z,8.09
2022-10-14T19:57:54.123Z,8.03
2022-10-14T20:00:25.586Z,7.92
2022-10-14T20:02:55.378Z,7.92
2022-10-14T20:05:25.005Z,7.89
2022-10-14T20:07:55.012Z,7.89
2022-10-14T20:10:24.853Z,7.88
2022-10-14T20:12:54.653Z,7.82
2022-10-14T20:15:24.499Z,7.77
2022-10-14T20:17:54.441Z,7.75
2022-10-14T20:20:24.253Z,7.72
2022-10-14T20:22:54.041Z,7.72
2022-10-14T20:25:23.785Z,7.66
2022-10-14T20:27:53.596Z,7.64
2022-10-14T20:30:23.385Z,7.55
2022-10-14T20:32:54.636Z,7.55
2022-10-14T20:35:24.866Z,7.51
2022-10-14T20:37:54.521Z,7.47
2022-10-14T20:40:24.307Z,7.51
2022-10-14T20:42:54.222Z,7.48
2022-10-14T20:45:23.898Z,7.48
2022-10-14T20:47:53.958Z,7.42
2022-10-14T20:50:23.614Z,7.45
2022-10-14T20:52:53.402Z,7.39
2022-10-14T20:55:23.019Z,7.39
2022-10-14T20:57:52.834Z,7.46
2022-10-14T21:00:22.733Z,7.44
2022-10-14T21:02:52.817Z,7.40
2022-10-14T21:05:22.642Z,7.39
2022-10-14T21:07:53.090Z,7.31
2022-10-14T21:10:23.078Z,7.29
2022-10-14T21:12:52.888Z,7.25
2022-10-14T21:15:24.342Z,7.22
2022-10-14T21:17:54.657Z,7.13
2022-10-14T21:20:24.174Z,7.13
2022-10-14T21:22:54.075Z,7.10
2022-10-14T21:25:23.655Z,7.04
2022-10-14T21:27:53.439Z,7.03
2022-10-14T21:30:23.038Z,7.00
2022-10-14T21:32:52.978Z,6.95
2022-10-14T21:35:22.621Z,6.97
2022-10-14T21:37:55.364Z,6.92
2022-10-14T21:40:25.331Z,6.82
2022-10-14T21:42:55.539Z,6.78
2022-10-14T21:45:25.331Z,6.62
2022-10-14T21:47:55.215Z,6.62
2022-10-14T21:50:25.735Z,6.55
2022-10-14T21:52:55.296Z,6.54
2022-10-14T21:55:25.124Z,6.53
2022-10-14T21:57:55.080Z,6.45
2022-10-14T22:00:24.990Z,6.41
2022-10-14T22:02:55.486Z,6.41
2022-10-14T22:05:25.001Z,6.43
2022-10-14T22:07:55.105Z,6.39
2022-10-14T22:10:43.705Z,6.39
2022-10-14T22:13:13.577Z,6.34
2022-10-14T22:15:44.234Z,6.32
2022-10-14T22:18:14.475Z,6.29
2022-10-14T22:20:44.668Z,6.24
2022-10-14T22:23:14.764Z,6.24
2022-10-14T22:25:44.589Z,6.16
2022-10-14T22:28:14.159Z,6.12
2022-10-14T22:30:43.993Z,6.07
2022-10-14T22:33:13.722Z,6.11
2022-10-14T22:35:44.128Z,6.07
2022-10-14T22:38:13.626Z,6.07
2022-10-14T22:40:43.532Z,6.04
2022-10-14T22:43:13.414Z,6.25
2022-10-14T22:45:43.221Z,6.19
2022-10-14T22:48:13.086Z,6.19
2022-10-14T22:50:43.240Z,6.16
2022-10-14T22:53:12.867Z,6.17
2022-10-14T22:55:42.755Z,6.25
2022-10-14T22:58:13.338Z,6.24
2022-10-14T23:00:42.916Z,6.22
2022-10-14T23:03:13.054Z,6.09
2022-10-14T23:05:42.944Z,6.05
2022-10-14T23:08:14.275Z,6.12
2022-10-14T23:10:43.970Z,6.18
2022-10-14T23:13:13.765Z,6.21
2022-10-14T23:15:43.884Z,6.14
2022-10-14T23:18:13.414Z,6.08
2022-10-14T23:20:43.214Z,6.13
2022-10-14T23:23:12.875Z,6.16
2022-10-14T23:25:42.883Z,6.17
2022-10-14T23:28:12.385Z,6.19
2022-10-14T23:30:42.519Z,6.18
2022-10-14T23:33:12.597Z,6.13
2022-10-14T23:35:42.540Z,6.28
2022-10-14T23:38:13.797Z,6.23
2022-10-14T23:40:43.879Z,6.20
2022-10-14T23:43:13.725Z,6.25
2022-10-14T23:45:44.632Z,6.25
2022-10-14T23:48:14.247Z,6.16
2022-10-14T23:50:44.686Z,6.23
2022-10-14T23:53:15.023Z,6.18
2022-10-14T23:55:44.747Z,6.13
2022-10-14T23:58:14.682Z,6.10
